sensor_id;sensor_type;location;lat;lon;timestamp;temperature;humidity
78438;SHT31;67736;51.978;5.656;2023-03-16T00:02:25;7.5;52.7
78438;SHT31;67736;51.978;5.656;2023-03-16T00:04:55;7.5;52.7
78438;SHT31;67736;51.978;5.656;2023-03-16T00:07:25;7.5;52.8
78438;SHT31;67736;51.978;5.656;2023-03-16T00:09:56;7.5;53.0
78438;SHT31;67736;51.978;5.656;2023-03-16T00:12:26;7.6;53.0
78438;SHT31;67736;51.978;5.656;2023-03-16T00:15:03;7.6;53.1
78438;SHT31;67736;51.978;5.656;2023-03-16T00:17:32;7.6;53.1
78438;SHT31;67736;51.978;5.656;2023-03-16T00:20:02;7.6;53.1
78438;SHT31;67736;51.978;5.656;2023-03-16T00:22:33;7.6;53.3
78438;SHT31;67736;51.978;5.656;2023-03-16T00:25:05;7.6;53.3
78438;SHT31;67736;51.978;5.656;2023-03-16T00:27:37;7.6;53.4
78438;SHT31;67736;51.978;5.656;2023-03-16T00:30:08;7.6;53.6
78438;SHT31;67736;51.978;5.656;2023-03-16T00:32:38;7.6;53.6
78438;SHT31;67736;51.978;5.656;2023-03-16T00:35:08;7.6;53.7
78438;SHT31;67736;51.978;5.656;2023-03-16T00:37:37;7.6;53.7
78438;SHT31;67736;51.978;5.656;2023-03-16T00:40:10;7.6;53.7
78438;SHT31;67736;51.978;5.656;2023-03-16T00:42:40;7.6;53.8
78438;SHT31;67736;51.978;5.656;2023-03-16T00:45:10;7.6;53.8
78438;SHT31;67736;51.978;5.656;2023-03-16T00:47:40;7.6;54.0
78438;SHT31;67736;51.978;5.656;2023-03-16T00:50:10;7.6;54.0
78438;SHT31;67736;51.978;5.656;2023-03-16T00:52:40;7.7;53.9
78438;SHT31;67736;51.978;5.656;2023-03-16T00:55:12;7.7;54.0
78438;SHT31;67736;51.978;5.656;2023-03-16T00:57:43;7.7;54.0
78438;SHT31;67736;51.978;5.656;2023-03-16T01:00:13;7.7;54.2
78438;SHT31;67736;51.978;5.656;2023-03-16T01:02:47;7.7;54.2
78438;SHT31;67736;51.978;5.656;2023-03-16T01:05:16;7.7;54.2
78438;SHT31;67736;51.978;5.656;2023-03-16T01:07:46;7.6;54.2
78438;SHT31;67736;51.978;5.656;2023-03-16T01:10:17;7.6;54.4
78438;SHT31;67736;51.978;5.656;2023-03-16T01:12:47;7.6;54.5
78438;SHT31;67736;51.978;5.656;2023-03-16T01:15:16;7.6;54.7
78438;SHT31;67736;51.978;5.656;2023-03-16T01:17:46;7.6;54.7
78438;SHT31;67736;51.978;5.656;2023-03-16T01:20:15;7.6;54.8
78438;SHT31;67736;51.978;5.656;2023-03-16T01:22:46;7.6;54.9
78438;SHT31;67736;51.978;5.656;2023-03-16T01:25:16;7.6;54.9
78438;SHT31;67736;51.978;5.656;2023-03-16T01:27:47;7.6;55.0
78438;SHT31;67736;51.978;5.656;2023-03-16T01:30:16;7.6;55.1
78438;SHT31;67736;51.978;5.656;2023-03-16T01:32:47;7.6;55.2
78438;SHT31;67736;51.978;5.656;2023-03-16T01:35:17;7.6;55.3
78438;SHT31;67736;51.978;5.656;2023-03-16T01:37:48;7.6;55.4
78438;SHT31;67736;51.978;5.656;2023-03-16T01:40:18;7.6;55.3
78438;SHT31;67736;51.978;5.656;2023-03-16T01:43:00;7.6;55.3
78438;SHT31;67736;51.978;5.656;2023-03-16T01:46:05;7.6;55.5
78438;SHT31;67736;51.978;5.656;2023-03-16T01:48:44;7.6;55.6
78438;SHT31;67736;51.978;5.656;2023-03-16T01:51:16;7.6;55.7
78438;SHT31;67736;51.978;5.656;2023-03-16T01:53:51;7.6;55.8
78438;SHT31;67736;51.978;5.656;2023-03-16T01:56:26;7.6;55.8
78438;SHT31;67736;51.978;5.656;2023-03-16T01:59:08;7.6;55.9
78438;SHT31;67736;51.978;5.656;2023-03-16T02:01:40;7.6;55.7
78438;SHT31;67736;51.978;5.656;2023-03-16T02:04:28;7.6;55.8
78438;SHT31;67736;51.978;5.656;2023-03-16T02:06:59;7.6;55.8
78438;SHT31;67736;51.978;5.656;2023-03-16T02:09:32;7.6;55.8
78438;SHT31;67736;51.978;5.656;2023-03-16T02:12:04;7.6;55.9
78438;SHT31;67736;51.978;5.656;2023-03-16T02:14:33;7.6;55.9
78438;SHT31;67736;51.978;5.656;2023-03-16T02:17:03;7.6;55.9
78438;SHT31;67736;51.978;5.656;2023-03-16T02:19:43;7.6;55.9
78438;SHT31;67736;51.978;5.656;2023-03-16T02:22:16;7.6;55.9
78438;SHT31;67736;51.978;5.656;2023-03-16T02:24:46;7.6;56.0
78438;SHT31;67736;51.978;5.656;2023-03-16T02:27:25;7.6;56.0
78438;SHT31;67736;51.978;5.656;2023-03-16T02:30:00;7.6;56.0
78438;SHT31;67736;51.978;5.656;2023-03-16T02:32:31;7.6;56.1
78438;SHT31;67736;51.978;5.656;2023-03-16T02:35:01;7.6;56.1
78438;SHT31;67736;51.978;5.656;2023-03-16T02:37:31;7.6;56.0
78438;SHT31;67736;51.978;5.656;2023-03-16T02:40:19;7.6;56.0
78438;SHT31;67736;51.978;5.656;2023-03-16T02:42:55;7.6;56.1
78438;SHT31;67736;51.978;5.656;2023-03-16T02:45:33;7.6;55.9
78438;SHT31;67736;51.978;5.656;2023-03-16T02:48:10;7.6;56.0
78438;SHT31;67736;51.978;5.656;2023-03-16T02:50:50;7.6;56.0
78438;SHT31;67736;51.978;5.656;2023-03-16T02:53:20;7.6;56.1
78438;SHT31;67736;51.978;5.656;2023-03-16T02:55:50;7.6;56.2
78438;SHT31;67736;51.978;5.656;2023-03-16T02:58:21;7.6;56.1
78438;SHT31;67736;51.978;5.656;2023-03-16T03:00:50;7.6;56.1
78438;SHT31;67736;51.978;5.656;2023-03-16T03:03:20;7.6;56.2
78438;SHT31;67736;51.978;5.656;2023-03-16T03:05:49;7.6;55.8
78438;SHT31;67736;51.978;5.656;2023-03-16T03:08:21;7.6;55.8
78438;SHT31;67736;51.978;5.656;2023-03-16T03:10:50;7.6;56.1
78438;SHT31;67736;51.978;5.656;2023-03-16T03:13:20;7.6;56.5
78438;SHT31;67736;51.978;5.656;2023-03-16T03:15:50;7.6;56.7
78438;SHT31;67736;51.978;5.656;2023-03-16T03:18:20;7.6;56.7
78438;SHT31;67736;51.978;5.656;2023-03-16T03:20:51;7.6;56.7
78438;SHT31;67736;51.978;5.656;2023-03-16T03:23:21;7.6;56.4
78438;SHT31;67736;51.978;5.656;2023-03-16T03:25:51;7.6;56.5
78438;SHT31;67736;51.978;5.656;2023-03-16T03:28:20;7.6;56.5
78438;SHT31;67736;51.978;5.656;2023-03-16T03:30:52;7.6;56.5
78438;SHT31;67736;51.978;5.656;2023-03-16T03:33:22;7.6;56.6
78438;SHT31;67736;51.978;5.656;2023-03-16T03:35:55;7.5;57.1
78438;SHT31;67736;51.978;5.656;2023-03-16T03:38:25;7.5;57.3
78438;SHT31;67736;51.978;5.656;2023-03-16T03:40:55;7.5;57.5
78438;SHT31;67736;51.978;5.656;2023-03-16T03:43:27;7.5;57.8
78438;SHT31;67736;51.978;5.656;2023-03-16T03:45:58;7.5;58.1
78438;SHT31;67736;51.978;5.656;2023-03-16T03:48:28;7.5;58.2
78438;SHT31;67736;51.978;5.656;2023-03-16T03:51:00;7.6;58.2
78438;SHT31;67736;51.978;5.656;2023-03-16T03:53:29;7.6;58.5
78438;SHT31;67736;51.978;5.656;2023-03-16T03:55:59;7.5;58.6
78438;SHT31;67736;51.978;5.656;2023-03-16T03:58:28;7.5;58.9
78438;SHT31;67736;51.978;5.656;2023-03-16T04:00:58;7.5;59.1
78438;SHT31;67736;51.978;5.656;2023-03-16T04:03:29;7.5;59.2
78438;SHT31;67736;51.978;5.656;2023-03-16T04:05:59;7.5;59.1
78438;SHT31;67736;51.978;5.656;2023-03-16T04:08:29;7.5;59.3
78438;SHT31;67736;51.978;5.656;2023-03-16T04:10:58;7.5;59.3
78438;SHT31;67736;51.978;5.656;2023-03-16T04:13:28;7.5;59.5
78438;SHT31;67736;51.978;5.656;2023-03-16T04:15:58;7.5;59.7
78438;SHT31;67736;51.978;5.656;2023-03-16T04:18:30;7.5;59.7
78438;SHT31;67736;51.978;5.656;2023-03-16T04:21:06;7.5;59.5
78438;SHT31;67736;51.978;5.656;2023-03-16T04:23:38;7.5;59.5
78438;SHT31;67736;51.978;5.656;2023-03-16T04:26:09;7.5;59.5
78438;SHT31;67736;51.978;5.656;2023-03-16T04:28:39;7.5;59.7
78438;SHT31;67736;51.978;5.656;2023-03-16T04:31:10;7.4;59.7
78438;SHT31;67736;51.978;5.656;2023-03-16T04:33:39;7.4;59.6
78438;SHT31;67736;51.978;5.656;2023-03-16T04:36:10;7.4;59.6
78438;SHT31;67736;51.978;5.656;2023-03-16T04:38:40;7.4;59.8
78438;SHT31;67736;51.978;5.656;2023-03-16T04:41:12;7.4;59.6
78438;SHT31;67736;51.978;5.656;2023-03-16T04:43:41;7.4;59.9
78438;SHT31;67736;51.978;5.656;2023-03-16T04:46:11;7.3;59.7
78438;SHT31;67736;51.978;5.656;2023-03-16T04:48:42;7.3;59.7
78438;SHT31;67736;51.978;5.656;2023-03-16T04:51:12;7.3;60.2
78438;SHT31;67736;51.978;5.656;2023-03-16T04:53:41;7.3;60.0
78438;SHT31;67736;51.978;5.656;2023-03-16T04:56:11;7.3;59.9
78438;SHT31;67736;51.978;5.656;2023-03-16T04:58:47;7.3;60.0
78438;SHT31;67736;51.978;5.656;2023-03-16T05:01:17;7.3;59.9
78438;SHT31;67736;51.978;5.656;2023-03-16T05:03:47;7.3;60.0
78438;SHT31;67736;51.978;5.656;2023-03-16T05:06:19;7.3;60.1
78438;SHT31;67736;51.978;5.656;2023-03-16T05:08:48;7.3;59.8
78438;SHT31;67736;51.978;5.656;2023-03-16T05:11:18;7.3;59.9
78438;SHT31;67736;51.978;5.656;2023-03-16T05:13:47;7.3;59.7
78438;SHT31;67736;51.978;5.656;2023-03-16T05:16:17;7.3;59.8
78438;SHT31;67736;51.978;5.656;2023-03-16T05:18:49;7.3;59.8
78438;SHT31;67736;51.978;5.656;2023-03-16T05:21:19;7.3;59.6
78438;SHT31;67736;51.978;5.656;2023-03-16T05:23:49;7.3;59.8
78438;SHT31;67736;51.978;5.656;2023-03-16T05:26:18;7.3;59.5
78438;SHT31;67736;51.978;5.656;2023-03-16T05:28:48;7.3;59.5
78438;SHT31;67736;51.978;5.656;2023-03-16T05:31:18;7.3;59.4
78438;SHT31;67736;51.978;5.656;2023-03-16T05:33:49;7.3;59.3
78438;SHT31;67736;51.978;5.656;2023-03-16T05:36:20;7.3;59.4
78438;SHT31;67736;51.978;5.656;2023-03-16T05:38:51;7.3;59.1
78438;SHT31;67736;51.978;5.656;2023-03-16T05:41:21;7.3;59.3
78438;SHT31;67736;51.978;5.656;2023-03-16T05:43:50;7.3;59.3
78438;SHT31;67736;51.978;5.656;2023-03-16T05:46:20;7.3;59.4
78438;SHT31;67736;51.978;5.656;2023-03-16T05:48:49;7.4;59.2
78438;SHT31;67736;51.978;5.656;2023-03-16T05:51:19;7.4;59.5
78438;SHT31;67736;51.978;5.656;2023-03-16T05:53:49;7.4;59.4
78438;SHT31;67736;51.978;5.656;2023-03-16T05:56:18;7.4;59.5
78438;SHT31;67736;51.978;5.656;2023-03-16T05:58:47;7.4;59.5
78438;SHT31;67736;51.978;5.656;2023-03-16T06:01:17;7.4;60.0
78438;SHT31;67736;51.978;5.656;2023-03-16T06:03:48;7.5;59.8
78438;SHT31;67736;51.978;5.656;2023-03-16T06:06:18;7.5;60.0
78438;SHT31;67736;51.978;5.656;2023-03-16T06:08:48;7.5;60.1
78438;SHT31;67736;51.978;5.656;2023-03-16T06:11:19;7.5;60.2
78438;SHT31;67736;51.978;5.656;2023-03-16T06:13:48;7.5;60.0
78438;SHT31;67736;51.978;5.656;2023-03-16T06:16:18;7.5;60.2
78438;SHT31;67736;51.978;5.656;2023-03-16T06:18:47;7.5;60.3
78438;SHT31;67736;51.978;5.656;2023-03-16T06:21:17;7.5;60.6
78438;SHT31;67736;51.978;5.656;2023-03-16T06:23:49;7.5;60.8
78438;SHT31;67736;51.978;5.656;2023-03-16T06:26:18;7.5;60.5
78438;SHT31;67736;51.978;5.656;2023-03-16T06:28:48;7.5;60.6
78438;SHT31;67736;51.978;5.656;2023-03-16T06:31:18;7.5;60.3
78438;SHT31;67736;51.978;5.656;2023-03-16T06:33:48;7.5;60.2
78438;SHT31;67736;51.978;5.656;2023-03-16T06:36:17;7.5;60.3
78438;SHT31;67736;51.978;5.656;2023-03-16T06:38:49;7.5;60.2
78438;SHT31;67736;51.978;5.656;2023-03-16T06:41:19;7.5;60.5
78438;SHT31;67736;51.978;5.656;2023-03-16T06:43:48;7.6;60.7
78438;SHT31;67736;51.978;5.656;2023-03-16T06:46:17;7.6;60.7
78438;SHT31;67736;51.978;5.656;2023-03-16T06:48:47;7.6;60.9
78438;SHT31;67736;51.978;5.656;2023-03-16T06:51:17;7.6;61.0
78438;SHT31;67736;51.978;5.656;2023-03-16T06:53:47;7.6;61.3
78438;SHT31;67736;51.978;5.656;2023-03-16T06:56:16;7.6;61.3
78438;SHT31;67736;51.978;5.656;2023-03-16T06:58:46;7.6;61.7
78438;SHT31;67736;51.978;5.656;2023-03-16T07:01:15;7.6;61.7
78438;SHT31;67736;51.978;5.656;2023-03-16T07:03:45;7.6;61.7
78438;SHT31;67736;51.978;5.656;2023-03-16T07:06:14;7.6;61.9
78438;SHT31;67736;51.978;5.656;2023-03-16T07:08:44;7.6;61.7
78438;SHT31;67736;51.978;5.656;2023-03-16T07:11:14;7.6;61.8
78438;SHT31;67736;51.978;5.656;2023-03-16T07:13:43;7.6;61.9
78438;SHT31;67736;51.978;5.656;2023-03-16T07:16:13;7.7;61.9
78438;SHT31;67736;51.978;5.656;2023-03-16T07:18:43;7.7;62.0
78438;SHT31;67736;51.978;5.656;2023-03-16T07:21:14;7.7;62.1
78438;SHT31;67736;51.978;5.656;2023-03-16T07:23:45;7.7;62.3
78438;SHT31;67736;51.978;5.656;2023-03-16T07:26:15;7.7;62.1
78438;SHT31;67736;51.978;5.656;2023-03-16T07:28:44;7.7;62.4
78438;SHT31;67736;51.978;5.656;2023-03-16T07:31:14;7.7;62.7
78438;SHT31;67736;51.978;5.656;2023-03-16T07:33:43;7.7;62.7
78438;SHT31;67736;51.978;5.656;2023-03-16T07:36:15;7.7;62.7
78438;SHT31;67736;51.978;5.656;2023-03-16T07:38:44;7.7;62.8
78438;SHT31;67736;51.978;5.656;2023-03-16T07:41:14;7.8;62.8
78438;SHT31;67736;51.978;5.656;2023-03-16T07:43:43;7.8;62.4
78438;SHT31;67736;51.978;5.656;2023-03-16T07:46:13;7.8;62.6
78438;SHT31;67736;51.978;5.656;2023-03-16T07:48:44;7.8;62.5
78438;SHT31;67736;51.978;5.656;2023-03-16T07:51:14;7.8;62.6
78438;SHT31;67736;51.978;5.656;2023-03-16T07:53:43;7.8;62.5
78438;SHT31;67736;51.978;5.656;2023-03-16T07:56:13;7.8;62.8
78438;SHT31;67736;51.978;5.656;2023-03-16T07:58:42;7.8;63.3
78438;SHT31;67736;51.978;5.656;2023-03-16T08:01:12;7.8;62.9
78438;SHT31;67736;51.978;5.656;2023-03-16T08:03:43;7.9;62.9
78438;SHT31;67736;51.978;5.656;2023-03-16T08:06:13;7.9;63.3
78438;SHT31;67736;51.978;5.656;2023-03-16T08:08:42;7.9;63.4
78438;SHT31;67736;51.978;5.656;2023-03-16T08:11:12;7.9;63.4
78438;SHT31;67736;51.978;5.656;2023-03-16T08:13:47;7.9;63.3
78438;SHT31;67736;51.978;5.656;2023-03-16T08:16:21;7.9;62.7
78438;SHT31;67736;51.978;5.656;2023-03-16T08:18:51;7.9;62.9
78438;SHT31;67736;51.978;5.656;2023-03-16T08:21:23;8.0;62.6
78438;SHT31;67736;51.978;5.656;2023-03-16T08:23:53;8.0;63.0
78438;SHT31;67736;51.978;5.656;2023-03-16T08:26:25;8.0;63.4
78438;SHT31;67736;51.978;5.656;2023-03-16T08:28:55;8.0;62.8
78438;SHT31;67736;51.978;5.656;2023-03-16T08:31:28;8.0;63.6
78438;SHT31;67736;51.978;5.656;2023-03-16T08:34:02;8.1;63.2
78438;SHT31;67736;51.978;5.656;2023-03-16T08:36:34;8.1;63.6
78438;SHT31;67736;51.978;5.656;2023-03-16T08:39:07;8.1;63.5
78438;SHT31;67736;51.978;5.656;2023-03-16T08:41:36;8.2;63.5
78438;SHT31;67736;51.978;5.656;2023-03-16T08:44:07;8.2;63.1
78438;SHT31;67736;51.978;5.656;2023-03-16T08:46:39;8.3;62.7
78438;SHT31;67736;51.978;5.656;2023-03-16T08:49:08;8.3;62.7
78438;SHT31;67736;51.978;5.656;2023-03-16T08:51:40;8.4;63.0
78438;SHT31;67736;51.978;5.656;2023-03-16T08:54:09;8.4;62.7
78438;SHT31;67736;51.978;5.656;2023-03-16T08:56:39;8.5;62.7
78438;SHT31;67736;51.978;5.656;2023-03-16T08:59:09;8.5;61.9
78438;SHT31;67736;51.978;5.656;2023-03-16T09:01:40;8.5;62.1
78438;SHT31;67736;51.978;5.656;2023-03-16T09:04:10;8.6;62.3
78438;SHT31;67736;51.978;5.656;2023-03-16T09:06:40;8.6;62.1
78438;SHT31;67736;51.978;5.656;2023-03-16T09:09:09;8.7;61.4
78438;SHT31;67736;51.978;5.656;2023-03-16T09:11:39;8.7;61.2
78438;SHT31;67736;51.978;5.656;2023-03-16T09:14:09;8.7;61.1
78438;SHT31;67736;51.978;5.656;2023-03-16T09:16:39;8.8;61.1
78438;SHT31;67736;51.978;5.656;2023-03-16T09:19:08;8.8;60.6
78438;SHT31;67736;51.978;5.656;2023-03-16T09:21:38;8.8;61.0
78438;SHT31;67736;51.978;5.656;2023-03-16T09:24:07;8.9;60.7
78438;SHT31;67736;51.978;5.656;2023-03-16T09:26:37;8.9;60.5
78438;SHT31;67736;51.978;5.656;2023-03-16T09:29:06;8.9;60.8
78438;SHT31;67736;51.978;5.656;2023-03-16T09:31:36;8.9;60.5
78438;SHT31;67736;51.978;5.656;2023-03-16T09:34:05;9.0;60.2
78438;SHT31;67736;51.978;5.656;2023-03-16T09:36:35;9.0;60.0
78438;SHT31;67736;51.978;5.656;2023-03-16T09:39:05;9.0;60.0
78438;SHT31;67736;51.978;5.656;2023-03-16T09:41:41;9.1;59.7
78438;SHT31;67736;51.978;5.656;2023-03-16T09:44:29;9.1;59.8
78438;SHT31;67736;51.978;5.656;2023-03-16T09:47:03;9.1;59.2
78438;SHT31;67736;51.978;5.656;2023-03-16T09:49:36;9.2;59.4
78438;SHT31;67736;51.978;5.656;2023-03-16T09:52:19;9.2;58.5
78438;SHT31;67736;51.978;5.656;2023-03-16T09:54:57;9.2;58.7
78438;SHT31;67736;51.978;5.656;2023-03-16T09:57:31;9.3;58.8
78438;SHT31;67736;51.978;5.656;2023-03-16T10:03:14;9.3;58.7
78438;SHT31;67736;51.978;5.656;2023-03-16T10:05:53;9.4;58.5
78438;SHT31;67736;51.978;5.656;2023-03-16T10:08:27;9.4;58.5
78438;SHT31;67736;51.978;5.656;2023-03-16T10:11:06;9.4;59.2
78438;SHT31;67736;51.978;5.656;2023-03-16T10:13:45;9.5;58.8
78438;SHT31;67736;51.978;5.656;2023-03-16T10:16:20;9.6;58.1
78438;SHT31;67736;51.978;5.656;2023-03-16T10:18:59;9.6;58.1
78438;SHT31;67736;51.978;5.656;2023-03-16T10:21:32;9.7;58.3
78438;SHT31;67736;51.978;5.656;2023-03-16T10:24:15;9.8;57.6
78438;SHT31;67736;51.978;5.656;2023-03-16T10:26:55;9.9;57.2
78438;SHT31;67736;51.978;5.656;2023-03-16T10:29:32;10.0;57.0
78438;SHT31;67736;51.978;5.656;2023-03-16T10:32:13;10.1;57.0
78438;SHT31;67736;51.978;5.656;2023-03-16T10:34:47;10.2;55.9
78438;SHT31;67736;51.978;5.656;2023-03-16T10:37:20;10.4;56.0
78438;SHT31;67736;51.978;5.656;2023-03-16T10:39:50;10.5;55.2
78438;SHT31;67736;51.978;5.656;2023-03-16T10:42:21;10.6;55.5
78438;SHT31;67736;51.978;5.656;2023-03-16T10:44:58;10.8;54.3
78438;SHT31;67736;51.978;5.656;2023-03-16T10:47:31;10.9;54.3
78438;SHT31;67736;51.978;5.656;2023-03-16T10:50:12;11.0;54.5
78438;SHT31;67736;51.978;5.656;2023-03-16T10:52:45;11.1;52.7
78438;SHT31;67736;51.978;5.656;2023-03-16T10:55:20;11.2;52.3
78438;SHT31;67736;51.978;5.656;2023-03-16T10:57:52;11.3;52.1
78438;SHT31;67736;51.978;5.656;2023-03-16T11:00:26;11.4;52.3
78438;SHT31;67736;51.978;5.656;2023-03-16T11:02:58;11.4;52.7
78438;SHT31;67736;51.978;5.656;2023-03-16T11:05:32;11.5;53.1
78438;SHT31;67736;51.978;5.656;2023-03-16T11:08:10;11.6;51.5
78438;SHT31;67736;51.978;5.656;2023-03-16T11:10:44;11.7;51.0
78438;SHT31;67736;51.978;5.656;2023-03-16T11:13:16;11.7;51.3
78438;SHT31;67736;51.978;5.656;2023-03-16T11:15:52;11.8;51.3
78438;SHT31;67736;51.978;5.656;2023-03-16T11:18:29;11.9;50.5
78438;SHT31;67736;51.978;5.656;2023-03-16T11:21:11;12.0;50.1
78438;SHT31;67736;51.978;5.656;2023-03-16T11:23:47;12.0;49.4
78438;SHT31;67736;51.978;5.656;2023-03-16T11:26:22;12.1;49.4
78438;SHT31;67736;51.978;5.656;2023-03-16T11:28:59;12.1;49.2
78438;SHT31;67736;51.978;5.656;2023-03-16T11:31:42;12.1;48.7
78438;SHT31;67736;51.978;5.656;2023-03-16T11:34:19;12.2;48.6
78438;SHT31;67736;51.978;5.656;2023-03-16T11:36:53;12.2;48.6
78438;SHT31;67736;51.978;5.656;2023-03-16T11:39:30;12.2;48.5
78438;SHT31;67736;51.978;5.656;2023-03-16T11:42:21;12.3;48.1
78438;SHT31;67736;51.978;5.656;2023-03-16T11:44:55;12.3;48.3
78438;SHT31;67736;51.978;5.656;2023-03-16T11:49:46;12.3;48.3
78438;SHT31;67736;51.978;5.656;2023-03-16T11:52:28;12.4;49.0
78438;SHT31;67736;51.978;5.656;2023-03-16T11:55:13;12.4;48.9
78438;SHT31;67736;51.978;5.656;2023-03-16T11:57:56;12.5;49.0
78438;SHT31;67736;51.978;5.656;2023-03-16T12:00:42;12.5;48.3
78438;SHT31;67736;51.978;5.656;2023-03-16T12:03:45;12.6;48.3
78438;SHT31;67736;51.978;5.656;2023-03-16T12:06:28;12.7;48.1
78438;SHT31;67736;51.978;5.656;2023-03-16T12:10:29;12.7;48.0
78438;SHT31;67736;51.978;5.656;2023-03-16T12:13:21;12.8;48.2
78438;SHT31;67736;51.978;5.656;2023-03-16T12:15:59;12.9;48.3
78438;SHT31;67736;51.978;5.656;2023-03-16T12:18:39;12.9;47.4
78438;SHT31;67736;51.978;5.656;2023-03-16T12:21:15;13.0;47.7
78438;SHT31;67736;51.978;5.656;2023-03-16T12:23:51;13.0;47.4
78438;SHT31;67736;51.978;5.656;2023-03-16T12:26:24;13.1;47.1
78438;SHT31;67736;51.978;5.656;2023-03-16T12:28:58;13.1;47.3
78438;SHT31;67736;51.978;5.656;2023-03-16T12:31:39;13.2;46.6
78438;SHT31;67736;51.978;5.656;2023-03-16T12:34:16;13.2;46.4
78438;SHT31;67736;51.978;5.656;2023-03-16T12:37:16;13.3;46.8
78438;SHT31;67736;51.978;5.656;2023-03-16T12:40:04;13.3;47.5
78438;SHT31;67736;51.978;5.656;2023-03-16T12:42:54;13.4;47.4
78438;SHT31;67736;51.978;5.656;2023-03-16T12:45:33;13.5;47.4
78438;SHT31;67736;51.978;5.656;2023-03-16T12:48:10;13.6;46.7
78438;SHT31;67736;51.978;5.656;2023-03-16T12:50:51;13.7;45.9
78438;SHT31;67736;51.978;5.656;2023-03-16T12:53:43;13.8;44.9
78438;SHT31;67736;51.978;5.656;2023-03-16T12:56:15;13.8;44.8
78438;SHT31;67736;51.978;5.656;2023-03-16T12:58:48;13.9;44.7
78438;SHT31;67736;51.978;5.656;2023-03-16T13:01:26;13.9;44.7
78438;SHT31;67736;51.978;5.656;2023-03-16T13:04:05;14.0;44.7
78438;SHT31;67736;51.978;5.656;2023-03-16T13:06:36;14.0;44.9
78438;SHT31;67736;51.978;5.656;2023-03-16T13:09:07;14.0;44.6
78438;SHT31;67736;51.978;5.656;2023-03-16T13:11:45;14.1;44.4
78438;SHT31;67736;51.978;5.656;2023-03-16T13:14:37;14.1;43.7
78438;SHT31;67736;51.978;5.656;2023-03-16T13:17:22;14.1;43.6
78438;SHT31;67736;51.978;5.656;2023-03-16T13:20:02;14.1;44.1
78438;SHT31;67736;51.978;5.656;2023-03-16T13:22:44;14.2;43.5
78438;SHT31;67736;51.978;5.656;2023-03-16T13:25:18;14.2;42.5
78438;SHT31;67736;51.978;5.656;2023-03-16T13:27:54;14.2;42.6
78438;SHT31;67736;51.978;5.656;2023-03-16T13:30:29;14.3;43.1
78438;SHT31;67736;51.978;5.656;2023-03-16T13:33:11;14.3;43.2
78438;SHT31;67736;51.978;5.656;2023-03-16T13:35:45;14.3;42.2
78438;SHT31;67736;51.978;5.656;2023-03-16T13:38:16;14.4;42.1
78438;SHT31;67736;51.978;5.656;2023-03-16T13:40:48;14.4;41.5
78438;SHT31;67736;51.978;5.656;2023-03-16T13:43:28;14.4;41.8
78438;SHT31;67736;51.978;5.656;2023-03-16T13:45:59;14.4;41.4
78438;SHT31;67736;51.978;5.656;2023-03-16T13:48:37;14.5;42.0
78438;SHT31;67736;51.978;5.656;2023-03-16T13:51:13;14.5;41.7
78438;SHT31;67736;51.978;5.656;2023-03-16T13:53:44;14.5;41.8
78438;SHT31;67736;51.978;5.656;2023-03-16T13:56:17;14.6;42.2
78438;SHT31;67736;51.978;5.656;2023-03-16T13:58:51;14.6;41.8
78438;SHT31;67736;51.978;5.656;2023-03-16T14:01:26;14.7;41.3
78438;SHT31;67736;51.978;5.656;2023-03-16T14:03:58;14.7;40.7
78438;SHT31;67736;51.978;5.656;2023-03-16T14:06:31;14.7;41.0
78438;SHT31;67736;51.978;5.656;2023-03-16T14:09:04;14.7;41.1
78438;SHT31;67736;51.978;5.656;2023-03-16T14:11:35;14.8;40.8
78438;SHT31;67736;51.978;5.656;2023-03-16T14:14:15;14.8;40.7
78438;SHT31;67736;51.978;5.656;2023-03-16T14:16:45;14.8;40.3
78438;SHT31;67736;51.978;5.656;2023-03-16T14:19:19;14.8;40.7
78438;SHT31;67736;51.978;5.656;2023-03-16T14:21:52;14.9;40.9
78438;SHT31;67736;51.978;5.656;2023-03-16T14:24:29;14.9;40.8
78438;SHT31;67736;51.978;5.656;2023-03-16T14:27:17;14.9;40.1
78438;SHT31;67736;51.978;5.656;2023-03-16T14:29:53;15.0;40.0
78438;SHT31;67736;51.978;5.656;2023-03-16T14:32:27;15.0;40.1
78438;SHT31;67736;51.978;5.656;2023-03-16T14:35:08;15.0;39.4
78438;SHT31;67736;51.978;5.656;2023-03-16T14:37:38;15.1;39.6
78438;SHT31;67736;51.978;5.656;2023-03-16T14:40:24;15.1;39.9
78438;SHT31;67736;51.978;5.656;2023-03-16T14:42:58;15.1;39.2
78438;SHT31;67736;51.978;5.656;2023-03-16T14:45:31;15.1;39.2
78438;SHT31;67736;51.978;5.656;2023-03-16T14:48:05;15.2;39.6
78438;SHT31;67736;51.978;5.656;2023-03-16T14:50:37;15.2;39.7
78438;SHT31;67736;51.978;5.656;2023-03-16T14:53:08;15.2;39.7
78438;SHT31;67736;51.978;5.656;2023-03-16T14:55:38;15.3;39.4
78438;SHT31;67736;51.978;5.656;2023-03-16T14:58:10;15.3;38.5
78438;SHT31;67736;51.978;5.656;2023-03-16T15:00:41;15.3;38.0
78438;SHT31;67736;51.978;5.656;2023-03-16T15:03:14;15.3;38.5
78438;SHT31;67736;51.978;5.656;2023-03-16T15:05:47;15.3;38.0
78438;SHT31;67736;51.978;5.656;2023-03-16T15:08:22;15.3;38.2
78438;SHT31;67736;51.978;5.656;2023-03-16T15:10:55;15.3;38.4
78438;SHT31;67736;51.978;5.656;2023-03-16T15:13:27;15.3;38.1
78438;SHT31;67736;51.978;5.656;2023-03-16T15:16:16;15.3;38.4
78438;SHT31;67736;51.978;5.656;2023-03-16T15:18:46;15.3;38.5
78438;SHT31;67736;51.978;5.656;2023-03-16T15:21:21;15.3;38.2
78438;SHT31;67736;51.978;5.656;2023-03-16T15:23:51;15.3;38.1
78438;SHT31;67736;51.978;5.656;2023-03-16T15:26:24;15.3;38.3
78438;SHT31;67736;51.978;5.656;2023-03-16T15:28:56;15.4;37.7
78438;SHT31;67736;51.978;5.656;2023-03-16T15:31:26;15.3;38.0
78438;SHT31;67736;51.978;5.656;2023-03-16T15:33:55;15.3;37.9
78438;SHT31;67736;51.978;5.656;2023-03-16T15:36:25;15.3;38.0
78438;SHT31;67736;51.978;5.656;2023-03-16T15:38:55;15.3;38.0
78438;SHT31;67736;51.978;5.656;2023-03-16T15:41:24;15.3;37.5
78438;SHT31;67736;51.978;5.656;2023-03-16T15:43:54;15.3;38.0
78438;SHT31;67736;51.978;5.656;2023-03-16T15:46:27;15.3;38.3
78438;SHT31;67736;51.978;5.656;2023-03-16T15:48:57;15.4;38.2
78438;SHT31;67736;51.978;5.656;2023-03-16T15:51:29;15.4;38.4
78438;SHT31;67736;51.978;5.656;2023-03-16T15:54:01;15.4;38.3
78438;SHT31;67736;51.978;5.656;2023-03-16T15:56:34;15.4;37.6
78438;SHT31;67736;51.978;5.656;2023-03-16T15:59:10;15.4;37.7
78438;SHT31;67736;51.978;5.656;2023-03-16T16:01:43;15.4;37.5
78438;SHT31;67736;51.978;5.656;2023-03-16T16:04:18;15.4;37.9
78438;SHT31;67736;51.978;5.656;2023-03-16T16:06:49;15.4;37.9
78438;SHT31;67736;51.978;5.656;2023-03-16T16:09:22;15.4;38.1
78438;SHT31;67736;51.978;5.656;2023-03-16T16:11:54;15.4;38.2
78438;SHT31;67736;51.978;5.656;2023-03-16T16:14:25;15.4;38.3
78438;SHT31;67736;51.978;5.656;2023-03-16T16:16:55;15.4;38.6
78438;SHT31;67736;51.978;5.656;2023-03-16T16:19:25;15.4;38.5
78438;SHT31;67736;51.978;5.656;2023-03-16T16:21:56;15.4;38.3
78438;SHT31;67736;51.978;5.656;2023-03-16T16:24:26;15.4;38.0
78438;SHT31;67736;51.978;5.656;2023-03-16T16:26:55;15.4;38.1
78438;SHT31;67736;51.978;5.656;2023-03-16T16:29:30;15.4;38.3
78438;SHT31;67736;51.978;5.656;2023-03-16T16:32:01;15.4;38.4
78438;SHT31;67736;51.978;5.656;2023-03-16T16:34:30;15.3;38.9
78438;SHT31;67736;51.978;5.656;2023-03-16T16:37:00;15.3;39.0
78438;SHT31;67736;51.978;5.656;2023-03-16T16:39:29;15.3;39.1
78438;SHT31;67736;51.978;5.656;2023-03-16T16:41:59;15.3;39.2
78438;SHT31;67736;51.978;5.656;2023-03-16T16:44:29;15.3;39.3
78438;SHT31;67736;51.978;5.656;2023-03-16T16:46:59;15.3;39.6
78438;SHT31;67736;51.978;5.656;2023-03-16T16:49:32;15.3;39.4
78438;SHT31;67736;51.978;5.656;2023-03-16T16:52:01;15.3;39.7
78438;SHT31;67736;51.978;5.656;2023-03-16T16:54:31;15.3;39.7
78438;SHT31;67736;51.978;5.656;2023-03-16T16:57:07;15.2;39.8